createdAt,value
2023-03-31T00:01:47.109Z,100365.97
2023-03-31T00:04:53.398Z,100366.84
2023-03-31T00:08:00.997Z,100357.97
2023-03-31T00:11:07.426Z,100359.69
2023-03-31T00:14:10.925Z,100353.56
2023-03-31T00:17:13.872Z,100361.56
2023-03-31T00:20:17.242Z,100353.56
2023-03-31T00:23:28.072Z,100348.25
2023-03-31T00:26:33.089Z,100345.50
2023-03-31T00:29:36.152Z,100335.88
2023-03-31T00:32:39.344Z,100339.31
2023-03-31T00:35:43.590Z,100335.88
2023-03-31T00:38:46.946Z,100331.47
2023-03-31T00:41:51.421Z,100330.53
2023-03-31T00:45:24.015Z,100331.47
2023-03-31T00:48:27.679Z,100326.13
2023-03-31T00:51:34.267Z,100327.88
2023-03-31T00:54:39.261Z,100324.34
2023-03-31T00:57:48.036Z,100325.22
2023-03-31T01:00:53.320Z,100322.53
2023-03-31T01:03:57.413Z,100318.16
2023-03-31T01:07:09.240Z,100310.16
2023-03-31T01:10:13.335Z,100311.00
2023-03-31T01:13:19.576Z,100301.31
2023-03-31T01:16:22.626Z,100301.31
2023-03-31T01:19:34.339Z,100300.44
2023-03-31T01:23:16.951Z,100309.38
2023-03-31T01:26:46.481Z,100308.44
2023-03-31T01:30:37.212Z,100295.13
2023-03-31T01:34:08.443Z,100293.38
2023-03-31T01:37:31.408Z,100290.72
2023-03-31T01:41:01.825Z,100285.38
2023-03-31T01:44:11.274Z,100285.38
2023-03-31T01:47:22.754Z,100274.81
2023-03-31T01:50:32.391Z,100278.34
2023-03-31T01:53:43.919Z,100275.69
2023-03-31T01:56:56.039Z,100269.50
2023-03-31T02:00:07.362Z,100265.03
2023-03-31T02:03:19.057Z,100260.63
2023-03-31T02:06:27.346Z,100263.31
2023-03-31T02:09:35.269Z,100247.31
2023-03-31T02:12:43.595Z,100242.84
2023-03-31T02:15:51.810Z,100239.31
2023-03-31T02:19:02.376Z,100241.13
2023-03-31T02:22:08.925Z,100243.81
2023-03-31T02:25:14.030Z,100241.97
2023-03-31T02:28:22.171Z,100233.03
2023-03-31T02:31:31.003Z,100241.97
2023-03-31T02:34:34.057Z,100235.81
2023-03-31T02:37:37.690Z,100237.59
2023-03-31T02:40:41.711Z,100227.81
2023-03-31T02:43:46.241Z,100229.63
2023-03-31T02:46:50.363Z,100226.94
2023-03-31T02:49:56.948Z,100228.63
2023-03-31T02:53:07.609Z,100219.81
2023-03-31T02:56:26.438Z,100217.97
2023-03-31T02:59:42.439Z,100217.03
2023-03-31T03:03:02.369Z,100211.72
2023-03-31T03:06:13.665Z,100208.19
2023-03-31T03:09:31.931Z,100204.66
2023-03-31T03:12:41.509Z,100205.50
2023-03-31T03:15:50.302Z,100210.84
2023-03-31T03:19:00.348Z,100210.84
2023-03-31T03:22:03.264Z,100205.50
2023-03-31T03:25:07.135Z,100202.84
2023-03-31T03:28:10.030Z,100200.06
2023-03-31T03:31:15.695Z,100192.09
2023-03-31T03:34:20.061Z,100197.41
2023-03-31T03:37:22.902Z,100188.47
2023-03-31T03:40:25.977Z,100191.16
2023-03-31T03:43:28.908Z,100189.41
2023-03-31T03:46:33.216Z,100188.47
2023-03-31T03:49:36.154Z,100189.34
2023-03-31T03:52:39.216Z,100175.16
2023-03-31T03:55:42.473Z,100184.84
2023-03-31T03:58:45.376Z,100179.50
2023-03-31T04:01:49.766Z,100176.84
2023-03-31T04:04:52.875Z,100164.50
2023-03-31T04:07:55.814Z,100170.69
2023-03-31T04:10:58.775Z,100157.34
2023-03-31T04:14:01.719Z,100163.50
2023-03-31T04:17:06.037Z,100166.13
2023-03-31T04:20:11.561Z,100170.59
2023-03-31T04:23:15.092Z,100161.59
2023-03-31T04:26:26.667Z,100154.59
2023-03-31T04:29:33.619Z,100150.94
2023-03-31T04:32:38.293Z,100156.28
2023-03-31T04:35:48.702Z,100161.59
2023-03-31T04:38:54.920Z,100149.25
2023-03-31T04:41:58.669Z,100145.72
2023-03-31T04:45:01.578Z,100132.38
2023-03-31T04:48:06.280Z,100135.06
2023-03-31T04:51:10.626Z,100130.59
2023-03-31T04:54:13.586Z,100117.25
2023-03-31T04:57:16.530Z,100111.94
2023-03-31T05:00:20.961Z,100116.28
2023-03-31T05:03:25.573Z,100109.16
2023-03-31T05:06:28.582Z,100104.69
2023-03-31T05:09:32.612Z,100110.03
2023-03-31T05:12:36.552Z,100105.63
2023-03-31T05:15:40.289Z,100101.16
2023-03-31T05:18:44.703Z,100091.47
2023-03-31T05:21:47.625Z,100084.28
2023-03-31T05:24:50.523Z,100085.16
2023-03-31T05:27:53.401Z,100076.31
2023-03-31T05:30:56.301Z,100075.47
2023-03-31T05:34:00.565Z,100074.59
2023-03-31T05:37:03.439Z,100070.97
2023-03-31T05:40:08.221Z,100072.69
2023-03-31T05:43:11.310Z,100072.69
2023-03-31T05:46:14.580Z,100070.03
2023-03-31T05:49:18.970Z,100062.03
2023-03-31T05:52:21.967Z,100066.50
2023-03-31T05:55:24.887Z,100062.03
2023-03-31T05:58:28.054Z,100056.69
2023-03-31T06:01:31.025Z,100042.44
2023-03-31T06:04:35.412Z,100045.09
2023-03-31T06:07:38.372Z,100040.69
2023-03-31T06:10:42.864Z,100033.66
2023-03-31T06:13:46.046Z,100040.69
2023-03-31T06:16:49.437Z,100042.44
2023-03-31T06:19:53.675Z,100037.94
2023-03-31T06:22:56.592Z,100029.09
2023-03-31T06:26:02.625Z,100030.78
2023-03-31T06:29:05.604Z,100022.78
2023-03-31T06:32:08.770Z,100015.78
2023-03-31T06:35:13.075Z,100015.78
2023-03-31T06:38:16.118Z,100012.25
2023-03-31T06:41:20.585Z,100017.66
2023-03-31T06:44:24.669Z,100016.81
2023-03-31T06:47:27.876Z,100008.91
2023-03-31T06:50:32.214Z,100004.53
2023-03-31T06:53:35.766Z,100005.47
2023-03-31T06:56:38.606Z,100005.47
2023-03-31T06:59:41.602Z,100012.53
2023-03-31T07:02:44.624Z,100011.56
2023-03-31T07:05:51.138Z,100012.53
2023-03-31T07:08:54.011Z,100006.34
2023-03-31T07:11:57.044Z,100008.47
2023-03-31T07:14:59.981Z,100000.16
2023-03-31T07:18:03.031Z,99998.75
2023-03-31T07:21:09.699Z,100010.09
2023-03-31T07:24:13.192Z,99996.59
2023-03-31T07:27:16.090Z,100002.38
2023-03-31T07:30:20.944Z,100002.69
2023-03-31T07:33:23.915Z,99997.56
2023-03-31T07:36:28.324Z,99991.25
2023-03-31T07:39:31.279Z,99980.59
2023-03-31T07:42:35.071Z,99976.81
2023-03-31T07:45:41.099Z,99979.09
2023-03-31T07:48:44.059Z,99961.00
2023-03-31T07:51:48.299Z,99957.97
2023-03-31T07:54:51.349Z,99954.16
2023-03-31T07:57:54.329Z,99948.59
2023-03-31T08:00:57.368Z,99943.94
2023-03-31T08:04:01.056Z,99937.47
2023-03-31T08:07:05.994Z,99934.56
2023-03-31T08:10:12.410Z,99928.19
2023-03-31T08:13:15.459Z,99929.97
2023-03-31T08:16:18.670Z,99928.03
2023-03-31T08:19:22.204Z,99919.06
2023-03-31T08:22:26.524Z,99926.13
2023-03-31T08:25:29.471Z,99914.50
2023-03-31T08:28:32.341Z,99917.16
2023-03-31T08:31:35.264Z,99918.03
2023-03-31T08:34:38.289Z,99919.84
2023-03-31T08:37:42.611Z,99915.47
2023-03-31T08:40:45.561Z,99918.13
2023-03-31T08:43:50.363Z,99914.63
2023-03-31T08:46:56.469Z,99908.41
2023-03-31T08:50:04.236Z,99903.09
2023-03-31T08:53:14.914Z,99904.06
2023-03-31T08:56:20.180Z,99903.09
2023-03-31T08:59:28.577Z,99899.56
2023-03-31T09:02:44.265Z,99893.41
2023-03-31T09:06:00.914Z,99891.50
2023-03-31T09:09:11.242Z,99879.97
2023-03-31T09:12:21.657Z,99873.66
2023-03-31T09:15:28.272Z,99878.16
2023-03-31T09:18:35.410Z,99868.44
2023-03-31T09:21:42.924Z,99864.91
2023-03-31T09:24:59.898Z,99862.25
2023-03-31T09:28:06.025Z,99854.16
2023-03-31T09:31:15.952Z,99857.66
2023-03-31T09:34:25.946Z,99847.00
2023-03-31T09:37:32.764Z,99855.75
2023-03-31T09:40:36.997Z,99846.94
2023-03-31T09:43:42.181Z,99843.28
2023-03-31T09:46:45.231Z,99832.53
2023-03-31T09:49:53.361Z,99829.78
2023-03-31T09:52:58.982Z,99825.28
2023-03-31T09:56:06.378Z,99820.78
2023-03-31T09:59:15.728Z,99815.47
2023-03-31T10:02:30.895Z,99808.44
2023-03-31T10:05:36.342Z,99805.78
2023-03-31T10:08:42.594Z,99794.25
2023-03-31T10:11:58.892Z,99794.16
2023-03-31T10:15:19.971Z,99789.78
2023-03-31T10:18:34.394Z,99786.25
2023-03-31T10:21:39.115Z,99782.72
2023-03-31T10:24:43.631Z,99781.78
2023-03-31T10:27:51.165Z,99773.78
2023-03-31T10:30:55.697Z,99772.19
2023-03-31T10:33:59.796Z,99773.47
2023-03-31T10:37:07.277Z,99778.53
2023-03-31T10:40:16.410Z,99771.81
2023-03-31T10:43:23.049Z,99764.88
2023-03-31T10:46:42.581Z,99760.41
2023-03-31T10:49:48.936Z,99754.84
2023-03-31T10:52:51.898Z,99754.75
2023-03-31T10:56:07.886Z,99739.53
2023-03-31T10:59:38.677Z,99737.69
2023-03-31T11:03:31.251Z,99732.16
2023-03-31T11:06:46.667Z,99720.53
2023-03-31T11:10:03.813Z,99718.59
2023-03-31T11:13:12.570Z,99704.34
2023-03-31T11:16:26.663Z,99706.09
2023-03-31T11:19:38.086Z,99702.47
2023-03-31T11:22:48.365Z,99698.84
2023-03-31T11:26:02.419Z,99700.53
2023-03-31T11:29:16.598Z,99692.53
2023-03-31T11:32:35.842Z,99676.56
2023-03-31T11:35:54.455Z,99672.09
2023-03-31T11:39:09.786Z,99665.88
2023-03-31T11:42:18.432Z,99663.22
2023-03-31T11:45:26.562Z,99662.38
2023-03-31T11:48:38.341Z,99647.25
2023-03-31T11:51:48.993Z,99646.38
2023-03-31T11:54:56.859Z,99639.25
2023-03-31T11:58:05.657Z,99635.72
2023-03-31T12:01:14.491Z,99640.22
2023-03-31T12:04:30.973Z,99629.56
2023-03-31T12:07:40.735Z,99628.59
2023-03-31T12:10:49.295Z,99620.59
2023-03-31T12:13:55.618Z,99607.38
2023-03-31T12:17:03.367Z,99600.25
2023-03-31T12:20:16.072Z,99598.53
2023-03-31T12:23:21.663Z,99590.53
2023-03-31T12:26:36.860Z,99579.88
2023-03-31T12:29:44.228Z,99574.53
2023-03-31T12:32:51.007Z,99585.19
2023-03-31T12:36:28.162Z,99568.34
2023-03-31T12:39:39.810Z,99569.22
2023-03-31T12:42:55.922Z,99559.53
2023-03-31T12:46:14.776Z,99567.53
2023-03-31T12:49:29.420Z,99558.72
2023-03-31T12:52:45.960Z,99561.38
2023-03-31T12:55:51.978Z,99551.72
2023-03-31T12:58:55.036Z,99548.19
2023-03-31T13:02:20.935Z,99535.84
2023-03-31T13:05:48.350Z,99543.84
2023-03-31T13:08:55.171Z,99526.97
2023-03-31T13:11:58.147Z,99524.44
2023-03-31T13:15:06.045Z,99525.19
2023-03-31T13:18:19.472Z,99523.47
2023-03-31T13:21:23.101Z,99514.59
2023-03-31T13:24:28.802Z,99508.44
2023-03-31T13:27:34.282Z,99503.13
2023-03-31T13:30:52.803Z,99498.63
2023-03-31T13:33:59.006Z,99501.41
2023-03-31T13:37:18.749Z,99494.28
2023-03-31T13:40:43.778Z,99491.59
2023-03-31T13:44:16.370Z,99489.06
2023-03-31T13:47:50.801Z,99491.72
2023-03-31T13:51:19.229Z,99487.22
2023-03-31T13:54:54.148Z,99488.19
2023-03-31T13:58:35.047Z,99487.34
2023-03-31T14:01:51.825Z,99498.00
2023-03-31T14:05:09.445Z,99499.81
2023-03-31T14:08:16.190Z,99502.47
2023-03-31T14:11:24.071Z,99507.06
2023-03-31T14:14:29.852Z,99518.56
2023-03-31T14:17:36.919Z,99513.38
2023-03-31T14:20:50.653Z,99512.50
2023-03-31T14:24:02.069Z,99508.03
2023-03-31T14:27:18.455Z,99501.84
2023-03-31T14:30:31.763Z,99508.97
2023-03-31T14:33:44.282Z,99503.66
2023-03-31T14:36:57.736Z,99506.31
2023-03-31T14:40:05.709Z,99511.66
2023-03-31T14:43:18.715Z,99501.84
2023-03-31T14:46:23.836Z,99506.31
2023-03-31T14:49:28.942Z,99508.97
2023-03-31T14:52:35.548Z,99504.63
2023-03-31T14:55:54.427Z,99497.59
2023-03-31T14:59:03.234Z,99496.63
2023-03-31T15:02:16.379Z,99503.78
2023-03-31T15:05:27.381Z,99506.44
2023-03-31T15:08:32.565Z,99497.59
2023-03-31T15:11:35.988Z,99498.44
2023-03-31T15:14:44.628Z,99503.66
2023-03-31T15:17:49.356Z,99501.97
2023-03-31T15:20:52.307Z,99501.00
2023-03-31T15:23:57.051Z,99501.00
2023-03-31T15:27:04.956Z,99501.00
2023-03-31T15:30:10.346Z,99497.47
2023-03-31T15:33:21.378Z,99495.78
2023-03-31T15:36:24.553Z,99494.94
2023-03-31T15:39:31.284Z,99497.59
2023-03-31T15:42:35.903Z,99493.25
2023-03-31T15:45:51.342Z,99501.22
2023-03-31T15:48:57.046Z,99490.56
2023-03-31T15:52:02.334Z,99497.72
2023-03-31T15:55:26.731Z,99502.06
2023-03-31T15:58:55.265Z,99495.91
2023-03-31T16:02:01.095Z,99489.72
2023-03-31T16:05:10.927Z,99491.41
2023-03-31T16:08:28.623Z,99486.19
2023-03-31T16:11:40.272Z,99488.00
2023-03-31T16:14:49.228Z,99488.84
2023-03-31T16:17:54.882Z,99491.50
2023-03-31T16:21:02.502Z,99489.84
2023-03-31T16:24:06.436Z,99488.84
2023-03-31T16:27:09.543Z,99489.84
2023-03-31T16:30:15.228Z,99490.66
2023-03-31T16:33:19.638Z,99492.50
2023-03-31T16:36:24.300Z,99487.16
2023-03-31T16:39:27.605Z,99481.84
2023-03-31T16:42:32.642Z,99488.00
2023-03-31T16:45:35.609Z,99486.31
2023-03-31T16:48:38.584Z,99483.53
2023-03-31T16:51:42.894Z,99480.13
2023-03-31T16:54:45.753Z,99480.13
2023-03-31T16:57:49.182Z,99479.25
2023-03-31T17:00:53.132Z,99486.44
2023-03-31T17:03:56.519Z,99490.91
2023-03-31T17:07:00.853Z,99486.50
2023-03-31T17:10:03.801Z,99485.66
2023-03-31T17:13:07.036Z,99482.25
2023-03-31T17:16:18.636Z,99491.97
2023-03-31T17:19:27.684Z,99484.91
2023-03-31T17:22:32.649Z,99489.31
2023-03-31T17:25:36.233Z,99484.91
2023-03-31T17:28:39.494Z,99489.31
2023-03-31T17:31:42.435Z,99494.63
2023-03-31T17:34:45.425Z,99495.47
2023-03-31T17:37:53.532Z,99500.81
2023-03-31T17:40:56.545Z,99496.31
2023-03-31T17:43:59.600Z,99494.63
2023-03-31T17:47:02.754Z,99506.13
2023-03-31T17:50:06.455Z,99499.94
2023-03-31T17:53:10.791Z,99500.81
2023-03-31T17:56:14.733Z,99507.09
2023-03-31T17:59:18.177Z,99510.59
2023-03-31T18:02:21.171Z,99518.59
2023-03-31T18:05:24.120Z,99517.63
2023-03-31T18:08:28.388Z,99518.47
2023-03-31T18:11:31.924Z,99518.47
2023-03-31T18:14:34.862Z,99512.28
2023-03-31T18:17:37.869Z,99517.63
2023-03-31T18:20:41.262Z,99519.47
2023-03-31T18:23:46.323Z,99518.59
2023-03-31T18:26:49.402Z,99526.59
2023-03-31T18:29:52.284Z,99521.25
2023-03-31T18:32:55.723Z,99515.19
2023-03-31T18:35:59.376Z,99528.50
2023-03-31T18:39:04.086Z,99531.19
2023-03-31T18:42:07.733Z,99526.59
2023-03-31T18:45:11.147Z,99538.19
2023-03-31T18:48:14.643Z,99535.53
2023-03-31T18:51:17.669Z,99526.59
2023-03-31T18:54:22.587Z,99531.91
2023-03-31T18:57:26.026Z,99534.59
2023-03-31T19:00:29.771Z,99537.25
2023-03-31T19:03:44.424Z,99531.06
2023-03-31T19:06:47.337Z,99540.03
2023-03-31T19:09:50.329Z,99538.31
2023-03-31T19:12:53.263Z,99544.50
2023-03-31T19:15:56.333Z,99540.13
2023-03-31T19:19:00.666Z,99534.78
2023-03-31T19:22:03.737Z,99537.44
2023-03-31T19:25:07.574Z,99544.50
2023-03-31T19:28:10.501Z,99540.84
2023-03-31T19:31:13.519Z,99539.16
2023-03-31T19:34:17.852Z,99539.91
2023-03-31T19:37:21.138Z,99532.88
2023-03-31T19:40:24.475Z,99542.56
2023-03-31T19:43:29.436Z,99528.50
2023-03-31T19:46:33.675Z,99531.91
2023-03-31T19:49:38.081Z,99531.91
2023-03-31T19:52:41.008Z,99539.91
2023-03-31T19:55:44.117Z,99534.59
2023-03-31T19:58:48.158Z,99528.50
2023-03-31T20:01:51.612Z,99525.84
2023-03-31T20:04:55.961Z,99532.03
2023-03-31T20:07:58.975Z,99531.19
2023-03-31T20:11:02.304Z,99533.84
2023-03-31T20:14:05.436Z,99529.38
2023-03-31T20:17:08.451Z,99526.72
2023-03-31T20:20:13.352Z,99530.19
2023-03-31T20:23:16.236Z,99531.19
2023-03-31T20:26:21.482Z,99544.50
2023-03-31T20:29:25.083Z,99536.50
2023-03-31T20:32:28.021Z,99528.50
2023-03-31T20:35:32.450Z,99534.78
2023-03-31T20:38:37.149Z,99527.78
2023-03-31T20:41:40.216Z,99535.66
2023-03-31T20:44:43.093Z,99537.44
2023-03-31T20:47:46.726Z,99528.50
2023-03-31T20:50:51.486Z,99531.19
2023-03-31T20:53:55.559Z,99534.69
2023-03-31T20:57:01.014Z,99532.03
2023-03-31T21:00:04.326Z,99532.88
2023-03-31T21:03:07.550Z,99530.31
2023-03-31T21:06:14.168Z,99530.19
2023-03-31T21:09:17.929Z,99532.97
2023-03-31T21:12:20.878Z,99536.50
2023-03-31T21:15:23.826Z,99540.13
2023-03-31T21:18:27.597Z,99542.78
2023-03-31T21:21:31.898Z,99547.28
2023-03-31T21:24:35.139Z,99546.41
2023-03-31T21:27:37.997Z,99547.28
2023-03-31T21:30:41.103Z,99548.09
2023-03-31T21:33:45.014Z,99543.75
2023-03-31T21:36:50.042Z,99545.44
2023-03-31T21:39:52.919Z,99547.28
2023-03-31T21:42:55.958Z,99546.41
2023-03-31T21:45:59.598Z,99551.75
2023-03-31T21:49:03.205Z,99560.69
2023-03-31T21:52:07.611Z,99555.34
2023-03-31T21:55:10.972Z,99552.81
2023-03-31T21:58:13.837Z,99558.13
2023-03-31T22:01:16.778Z,99551.09
2023-03-31T22:04:19.668Z,99557.28
2023-03-31T22:07:24.270Z,99557.28
2023-03-31T22:10:27.492Z,99557.28
2023-03-31T22:13:30.917Z,99568.78
2023-03-31T22:16:33.879Z,99564.41
2023-03-31T22:19:37.343Z,99563.47
2023-03-31T22:22:41.824Z,99564.41
2023-03-31T22:25:44.911Z,99562.72
2023-03-31T22:28:47.832Z,99561.75
2023-03-31T22:31:50.872Z,99560.91
2023-03-31T22:34:53.792Z,99559.19
2023-03-31T22:37:58.075Z,99557.50
2023-03-31T22:41:01.616Z,99567.28
2023-03-31T22:44:04.717Z,99567.28
2023-03-31T22:47:08.060Z,99566.44
2023-03-31T22:50:12.131Z,99569.22
2023-03-31T22:53:16.755Z,99570.91
2023-03-31T22:56:20.366Z,99569.09
2023-03-31T22:59:23.327Z,99584.13
2023-03-31T23:02:26.391Z,99579.75
2023-03-31T23:05:29.458Z,99571.75
2023-03-31T23:08:35.697Z,99573.56
2023-03-31T23:11:38.981Z,99575.41
2023-03-31T23:14:41.950Z,99569.22
2023-03-31T23:17:44.834Z,99570.06
2023-03-31T23:20:47.742Z,99579.00
2023-03-31T23:23:53.807Z,99577.31
2023-03-31T23:26:56.785Z,99580.94
2023-03-31T23:29:59.665Z,99581.78
2023-03-31T23:33:02.612Z,99582.66
2023-03-31T23:36:07.605Z,99576.47
2023-03-31T23:39:11.984Z,99577.41
2023-03-31T23:42:19.680Z,99579.13
2023-03-31T23:45:22.619Z,99582.72
2023-03-31T23:48:25.629Z,99584.56
2023-03-31T23:51:28.623Z,99571.34
2023-03-31T23:54:32.851Z,99581.13
2023-03-31T23:57:35.758Z,99580.31
